Thunder radar more information blitzortung!


avis per Pluja more information rain snow radar


Visita la nostra xarxa de llocs de meteo:

Template documentation
and downloads

And another site



Rain From: 15-11-2018 14:00 Until: 23:59 warning for: Rain Level: Orange info button

Pagina Historial Weather Underground text

Diari Resum Juliol 19, 2017 Unitats:  Imperial    Mètric   Tant
« Previous Dia
SegĂźent Dia »
Diari Setmana Mensual Anual Personalitzada
  Maxima: Minima: Media:
Temperatura: TemperatureC °F 20.6 °F 27 °F
Punt de rosada: DewpointC °F 12.6 °F 16.6 °F
Humitat: Humidity % 34 % 55 %
Wind Speed: WindSpeedKMH mph 0.0 mph 9.3 mph
RĂ fegues de vent: WindSpeedGustKMH mph - -
Vent:- - East
Pression baro: PressurehPa in 1009.0 in -
Precipitacions: 0.0 in    
Historical Graphs
 
 
Dades de taula per Juliol 19, 2017
Temps Temperatura Punt de rosada Pression baro Vent Wind Speed RĂ fegues de vent Humitat Rainfall Rate (Hourly)
TemperatureC °F DewpointC °F PressurehPa in Calm     Humidity % HourlyPrecipMM in
00:00 23.7 °F 16.5 °F 1014.8 in SW 1.6 mph 4.8 mph 64 % 0.0 in
00:05 23.7 °F 16.7 °F 1014.8 in SW 3.2 mph 6.4 mph 65 % 0.0 in
00:15 21.1 °F 16.9 °F 1011.7 in SW 3.2 mph 3.2 mph 77 % 0.0 in
00:25 20.9 °F 17.1 °F 1011.7 in SW 1.6 mph 3.2 mph 79 % 0.0 in
00:35 20.9 °F 17.1 °F 1011.7 in WSW 1.6 mph 3.2 mph 79 % 0.0 in
00:45 20.9 °F 17.3 °F 1011.7 in WSW 1.6 mph 3.2 mph 80 % 0.0 in
00:55 20.9 °F 17.5 °F 1011.7 in Calm   1.6 mph 81 % 0.0 in
01:05 21.0 °F 17.4 °F 1011.7 in WSW 3.2 mph 3.2 mph 80 % 0.0 in
01:15 21.0 °F 17.6 °F 1011.7 in Calm   3.2 mph 81 % 0.0 in
01:25 20.9 °F 17.7 °F 1012.8 in Calm     82 % 0.0 in
01:35 20.9 °F 17.7 °F 1012.8 in Calm   1.6 mph 82 % 0.0 in
01:45 20.8 °F 17.4 °F 1013.8 in Calm   3.2 mph 81 % 0.0 in
01:55 20.6 °F 17.0 °F 1013.8 in WSW 4.8 mph 4.8 mph 80 % 0.0 in
02:05 20.7 °F 16.7 °F 1013.8 in WSW 1.6 mph 6.4 mph 78 % 0.0 in
02:15 20.9 °F 16.9 °F 1013.8 in WSW 1.6 mph 3.2 mph 78 % 0.0 in
02:25 21.3 °F 16.9 °F 1014.8 in West 1.6 mph 4.8 mph 76 % 0.0 in
02:35 21.8 °F 17.2 °F 1014.8 in Calm   1.6 mph 75 % 0.0 in
02:45 22.1 °F 17.1 °F 1013.8 in Calm   3.2 mph 73 % 0.0 in
02:55 22.2 °F 17.1 °F 1013.8 in NE 3.2 mph 4.8 mph 73 % 0.0 in
03:05 22.0 °F 16.7 °F 1013.8 in NNE 3.2 mph 6.4 mph 72 % 0.0 in
03:15 22.0 °F 16.9 °F 1013.8 in North 1.6 mph 3.2 mph 73 % 0.0 in
03:25 21.9 °F 17.1 °F 1013.8 in West 1.6 mph 3.2 mph 74 % 0.0 in
03:35 22.3 °F 16.8 °F 1013.8 in WNW 1.6 mph 1.6 mph 71 % 0.0 in
03:45 22.8 °F 17.1 °F 1012.8 in NNE 1.6 mph 4.8 mph 70 % 0.0 in
03:55 24.0 °F 17.5 °F 1013.8 in NE 1.6 mph 6.4 mph 67 % 0.0 in
04:05 24.5 °F 17.5 °F 1013.8 in NE 3.2 mph 6.4 mph 65 % 0.0 in
04:15 25.5 °F 17.9 °F 1013.8 in NE 3.2 mph 6.4 mph 63 % 0.0 in
04:25 25.9 °F 17.6 °F 1012.8 in NE 3.2 mph 9.7 mph 60 % 0.0 in
04:35 26.4 °F 18.0 °F 1012.8 in NNE 3.2 mph 6.4 mph 60 % 0.0 in
04:45 26.5 °F 17.3 °F 1013.8 in NNE 4.8 mph 9.7 mph 57 % 0.0 in
04:55 27.4 °F 17.6 °F 1013.8 in NNE 3.2 mph 4.8 mph 55 % 0.0 in
05:05 27.7 °F 16.9 °F 1013.8 in NE 4.8 mph 6.4 mph 52 % 0.0 in
05:15 28.1 °F 17.0 °F 1012.8 in NE 3.2 mph 4.8 mph 51 % 0.0 in
05:25 28.4 °F 16.3 °F 1012.8 in ENE 4.8 mph 4.8 mph 48 % 0.0 in
05:30 28.6 °F 16.2 °F 1012.8 in East 3.2 mph 4.8 mph 47 % 0.0 in
10:31 28.6 °F 16.2 °F 1012.8 in NNE 5.6 mph 5.6 mph 47 % 0.0 in
10:37 29.0 °F 16.6 °F 1012.8 in SW 3.9 mph 3.9 mph 47 % 0.0 in
10:42 29.0 °F 16.2 °F 1012.8 in NNE 5.6 mph 5.6 mph 46 % 0.0 in
10:47 29.6 °F 16.8 °F 1012.8 in SW 5.6 mph 5.6 mph 46 % 0.0 in
10:48 29.7 °F 16.8 °F 1012.8 in West 2.3 mph 2.3 mph 46 % 0.0 in
10:53 29.5 °F 16.3 °F 1012.8 in North 9.3 mph 9.3 mph 45 % 0.0 in
10:58 29.6 °F 16.8 °F 1012.8 in ENE 9.3 mph 9.3 mph 46 % 0.0 in
11:03 29.5 °F 16.3 °F 1012.8 in NNE 3.7 mph 3.7 mph 45 % 0.0 in
11:08 29.6 °F 16.1 °F 1012.8 in SW 5.8 mph 5.8 mph 44 % 0.0 in
11:13 30.0 °F 16.1 °F 1012.8 in ENE 5.6 mph 5.6 mph 43 % 0.0 in
11:18 30.2 °F 15.9 °F 1012.8 in East 7.4 mph 7.4 mph 42 % 0.0 in
11:23 30.6 °F 15.4 °F 1011.7 in ESE 5.6 mph 5.6 mph 40 % 0.0 in
11:28 30.5 °F 15.0 °F 1011.7 in East 5.6 mph 5.6 mph 39 % 0.0 in
11:33 30.2 °F 14.3 °F 1011.7 in NE 7.4 mph 7.4 mph 38 % 0.0 in
11:38 30.4 °F 14.5 °F 1011.7 in South 5.6 mph 5.6 mph 38 % 0.0 in
11:43 30.4 °F 14.5 °F 1011.7 in ESE 9.0 mph 9.0 mph 38 % 0.0 in
11:49 30.0 °F 14.1 °F 1011.7 in East 7.4 mph 7.4 mph 38 % 0.0 in
11:54 29.9 °F 14.1 °F 1011.7 in SE 5.6 mph 5.6 mph 38 % 0.0 in
11:59 29.8 °F 13.6 °F 1011.7 in ESE 8.7 mph 8.7 mph 37 % 0.0 in
12:05 29.6 °F 12.9 °F 1011.7 in SE 7.4 mph 7.4 mph 36 % 0.0 in
12:10 29.7 °F 13.4 °F 1011.7 in ENE 7.4 mph 7.4 mph 37 % 0.0 in
12:15 30.2 °F 13.9 °F 1011.7 in ENE 1.6 mph 4.8 mph 37 % 0.0 in
12:20 30.2 °F 13.1 °F 1011.7 in SE 5.8 mph 5.8 mph 35 % 0.0 in
12:25 30.2 °F 12.6 °F 1011.7 in ENE 7.4 mph 7.4 mph 34 % 0.0 in
12:30 30.4 °F 13.2 °F 1011.7 in East 8.0 mph 14.5 mph 35 % 0.0 in
12:35 30.5 °F 12.9 °F 1011.7 in East 8.0 mph 11.3 mph 34 % 0.0 in
12:40 30.9 °F 13.7 °F 1011.7 in East 8.0 mph 11.3 mph 35 % 0.0 in
12:45 31.0 °F 13.7 °F 1011.7 in East 9.7 mph 12.9 mph 35 % 0.0 in
12:50 30.8 °F 13.6 °F 1011.7 in East 11.3 mph 17.7 mph 35 % 0.0 in
12:55 31.1 °F 13.8 °F 1010.7 in East 11.3 mph 14.5 mph 35 % 0.0 in
13:00 31.6 °F 14.7 °F 1010.7 in ESE 3.2 mph 14.5 mph 36 % 0.0 in
13:05 31.5 °F 14.6 °F 1010.7 in SE 13.0 mph 13.0 mph 36 % 0.0 in
13:10 31.0 °F 14.2 °F 1011.7 in ESE 11.3 mph 14.5 mph 36 % 0.0 in
13:15 30.8 °F 14.4 °F 1011.7 in ESE 14.5 mph 20.9 mph 37 % 0.0 in
13:20 30.6 °F 14.3 °F 1011.7 in ESE 15.8 mph 15.8 mph 37 % 0.0 in
13:25 30.4 °F 14.5 °F 1011.7 in East 13.0 mph 13.0 mph 38 % 0.0 in
13:30 30.6 °F 14.7 °F 1011.7 in ESE 9.7 mph 16.1 mph 38 % 0.0 in
13:35 30.5 °F 14.6 °F 1011.7 in ESE 9.7 mph 16.1 mph 38 % 0.0 in
13:40 30.6 °F 15.1 °F 1011.7 in ESE 9.7 mph 22.5 mph 39 % 0.0 in
13:45 30.7 °F 15.1 °F 1011.7 in ESE 9.7 mph 22.5 mph 39 % 0.0 in
13:46 30.8 °F 15.2 °F 1011.7 in ENE 14.8 mph 14.8 mph 39 % 0.0 in
13:51 30.7 °F 15.6 °F 1011.7 in East 13.0 mph 13.0 mph 40 % 0.0 in
13:56 31.3 °F 15.7 °F 1011.7 in East 14.8 mph 14.8 mph 39 % 0.0 in
14:01 31.2 °F 15.6 °F 1011.7 in East 9.7 mph 9.7 mph 39 % 0.0 in
14:06 31.5 °F 15.9 °F 1011.7 in ENE 8.7 mph 8.7 mph 39 % 0.0 in
14:11 31.4 °F 15.4 °F 1011.7 in South 16.7 mph 16.7 mph 38 % 0.0 in
14:16 31.5 °F 15.4 °F 1011.7 in ESE 25.1 mph 25.1 mph 38 % 0.0 in
14:21 31.6 °F 15.6 °F 1011.7 in South 11.1 mph 11.1 mph 38 % 0.0 in
14:26 31.7 °F 15.6 °F 1011.7 in ESE 11.4 mph 12.6 mph 38 % 0.0 in
14:31 31.1 °F 15.5 °F 1011.7 in ESE 18.5 mph 18.5 mph 39 % 0.0 in
14:33 31.0 °F 15.4 °F 1011.7 in ESE 24.1 mph 24.1 mph 39 % 0.0 in
14:38 30.9 °F 15.7 °F 1011.7 in East 20.4 mph 20.4 mph 40 % 0.0 in
14:43 30.9 °F 16.1 °F 1011.7 in ESE 13.0 mph 13.0 mph 41 % 0.0 in
14:48 31.0 °F 16.2 °F 1011.7 in SSE 14.8 mph 14.8 mph 41 % 0.0 in
14:53 30.4 °F 16.1 °F 1011.7 in ESE 18.5 mph 18.5 mph 42 % 0.0 in
14:58 30.7 °F 16.3 °F 1011.7 in SE 17.2 mph 17.2 mph 42 % 0.0 in
15:03 30.7 °F 16.7 °F 1011.7 in East 16.1 mph 16.1 mph 43 % 0.0 in
15:08 30.7 °F 16.3 °F 1011.7 in SE 14.8 mph 14.8 mph 42 % 0.0 in
15:10 30.9 °F 16.5 °F 1011.7 in East 14.8 mph 14.8 mph 42 % 0.0 in
15:14 30.7 °F 16.3 °F 1011.7 in ESE 17.2 mph 17.2 mph 42 % 0.0 in
15:20 31.2 °F 16.4 °F 1011.7 in SSW 9.3 mph 9.3 mph 41 % 0.0 in
15:25 31.6 °F 16.7 °F 1011.7 in ESE 11.1 mph 11.1 mph 41 % 0.0 in
15:30 31.3 °F 16.1 °F 1011.7 in SE 8.0 mph 22.5 mph 40 % 0.0 in
15:35 31.7 °F 16.1 °F 1011.7 in ESE 12.9 mph 25.7 mph 39 % 0.0 in
15:40 31.1 °F 15.5 °F 1011.7 in SSE 13.0 mph 13.0 mph 39 % 0.0 in
15:45 31.7 °F 16.1 °F 1011.7 in SE 9.7 mph 14.5 mph 39 % 0.0 in
15:50 30.8 °F 15.6 °F 1011.7 in SE 14.5 mph 22.5 mph 40 % 0.0 in
15:55 30.9 °F 16.1 °F 1011.7 in SE 8.0 mph 9.7 mph 41 % 0.0 in
16:00 30.2 °F 15.1 °F 1011.7 in East 16.7 mph 16.9 mph 40 % 0.0 in
16:05 30.3 °F 15.2 °F 1011.7 in East 18.0 mph 18.0 mph 40 % 0.0 in
16:10 30.4 °F 15.3 °F 1011.7 in NNE 25.9 mph 25.9 mph 40 % 0.0 in
16:15 30.6 °F 15.4 °F 1011.7 in ESE 16.7 mph 16.7 mph 40 % 0.0 in
16:20 30.2 °F 15.1 °F 1011.7 in South 16.7 mph 16.7 mph 40 % 0.0 in
16:25 30.3 °F 15.2 °F 1011.7 in ESE 11.3 mph 19.3 mph 40 % 0.0 in
16:30 30.7 °F 15.6 °F 1011.7 in ESE 13.0 mph 13.0 mph 40 % 0.0 in
16:35 30.8 °F 15.7 °F 1011.7 in ESE 13.0 mph 13.0 mph 40 % 0.0 in
16:40 30.1 °F 15.0 °F 1011.7 in ENE 14.8 mph 14.8 mph 40 % 0.0 in
16:45 30.3 °F 15.2 °F 1011.7 in ESE 16.7 mph 16.7 mph 40 % 0.0 in
16:50 30.6 °F 15.4 °F 1011.7 in East 19.5 mph 19.5 mph 40 % 0.0 in
16:55 30.1 °F 15.0 °F 1011.7 in ESE 14.8 mph 14.8 mph 40 % 0.0 in
17:00 30.4 °F 15.7 °F 1011.7 in SE 13.0 mph 13.0 mph 41 % 0.0 in
17:05 30.5 °F 15.8 °F 1011.7 in ENE 16.7 mph 16.7 mph 41 % 0.0 in
17:10 30.3 °F 15.2 °F 1010.7 in ESE 13.0 mph 13.0 mph 40 % 0.0 in
17:11 30.3 °F 15.2 °F 1010.7 in ESE 15.8 mph 15.8 mph 40 % 0.0 in
17:16 30.1 °F 15.8 °F 1010.7 in ESE 16.7 mph 16.7 mph 42 % 0.0 in
17:21 29.9 °F 15.6 °F 1012.8 in ESE 14.8 mph 14.8 mph 42 % 0.0 in
17:26 29.7 °F 15.8 °F 1012.8 in South 13.0 mph 13.0 mph 43 % 0.0 in
17:31 29.7 °F 16.5 °F 1012.8 in SE 9.3 mph 9.3 mph 45 % 0.0 in
17:36 29.9 °F 16.7 °F 1011.7 in NE 14.8 mph 14.8 mph 45 % 0.0 in
17:41 29.5 °F 16.3 °F 1011.7 in ESE 13.0 mph 13.0 mph 45 % 0.0 in
17:46 29.5 °F 16.3 °F 1011.7 in East 13.0 mph 13.0 mph 45 % 0.0 in
17:51 29.2 °F 16.1 °F 1011.7 in ESE 13.0 mph 13.0 mph 45 % 0.0 in
17:57 29.1 °F 16.3 °F 1011.7 in East 14.8 mph 14.8 mph 46 % 0.0 in
18:02 29.0 °F 16.6 °F 1011.7 in ENE 13.0 mph 13.0 mph 47 % 0.0 in
18:07 29.0 °F 16.6 °F 1011.7 in NNE 14.8 mph 14.8 mph 47 % 0.0 in
18:12 29.0 °F 16.6 °F 1011.7 in ENE 11.1 mph 11.9 mph 47 % 0.0 in
18:17 29.0 °F 16.6 °F 1011.7 in East 16.9 mph 16.9 mph 47 % 0.0 in
18:22 28.9 °F 16.8 °F 1010.7 in SSE 13.0 mph 13.0 mph 48 % 0.0 in
18:28 28.8 °F 16.4 °F 1010.7 in ESE 13.7 mph 13.7 mph 47 % 0.0 in
18:33 28.5 °F 16.1 °F 1010.7 in SSE 18.5 mph 18.5 mph 47 % 0.0 in
18:38 28.3 °F 15.6 °F 1010.7 in ESE 24.1 mph 24.1 mph 46 % 0.0 in
18:43 28.0 °F 15.6 °F 1010.7 in NE 14.5 mph 14.5 mph 47 % 0.0 in
18:48 28.0 °F 15.9 °F 1010.7 in ESE 13.0 mph 13.0 mph 48 % 0.0 in
18:53 27.9 °F 15.9 °F 1010.0 in ESE 13.0 mph 13.0 mph 48 % 0.0 in
18:58 27.8 °F 16.1 °F 1010.0 in ENE 11.9 mph 11.9 mph 49 % 0.0 in
19:03 27.6 °F 15.9 °F 1010.0 in East 18.5 mph 18.5 mph 49 % 0.0 in
19:08 27.7 °F 16.0 °F 1010.0 in NNE 14.0 mph 14.0 mph 49 % 0.0 in
19:13 27.6 °F 15.9 °F 1010.0 in ENE 11.1 mph 11.1 mph 49 % 0.0 in
19:15 23.5 °F 19.2 °F 1010.7 in NE 8.0 mph 8.0 mph 77 % 0.0 in
19:18 27.4 °F 15.7 °F 1010.0 in NNE 9.3 mph 9.3 mph 49 % 0.0 in
19:23 27.3 °F 15.9 °F 1010.0 in ESE 14.8 mph 14.8 mph 50 % 0.0 in
19:25 23.5 °F 19.2 °F 1010.0 in NE 4.8 mph 8.0 mph 77 % 0.0 in
19:28 27.3 °F 15.7 °F 1010.0 in NNE 13.0 mph 13.0 mph 49 % 0.0 in
19:33 27.4 °F 15.7 °F 1010.0 in ESE 13.0 mph 13.0 mph 49 % 0.0 in
19:35 23.4 °F 19.1 °F 1010.0 in NE 4.8 mph 4.8 mph 77 % 0.0 in
19:38 27.3 °F 15.9 °F 1010.0 in ENE 18.0 mph 18.0 mph 50 % 0.0 in
19:43 27.2 °F 15.9 °F 1010.0 in ESE 16.1 mph 16.1 mph 50 % 0.0 in
19:45 23.4 °F 19.1 °F 1010.0 in NE 8.0 mph 8.0 mph 77 % 0.0 in
19:48 27.1 °F 16.1 °F 1010.0 in South 16.7 mph 16.7 mph 51 % 0.0 in
19:54 27.2 °F 15.9 °F 1010.0 in ESE 13.0 mph 13.0 mph 50 % 0.0 in
19:55 23.5 °F 19.2 °F 1010.0 in NNE 8.0 mph 9.7 mph 77 % 0.0 in
19:59 27.1 °F 15.8 °F 1010.0 in ESE 9.3 mph 9.3 mph 50 % 0.0 in
20:04 27.1 °F 15.8 °F 1010.0 in ESE 9.3 mph 9.3 mph 50 % 0.0 in
20:05 23.4 °F 18.9 °F 1010.0 in NNE 4.8 mph 9.7 mph 76 % 0.0 in
20:09 27.0 °F 16.0 °F 1010.0 in East 9.5 mph 9.5 mph 51 % 0.0 in
20:10 27.0 °F 15.7 °F 1010.0 in ESE 9.3 mph 9.7 mph 50 % 0.0 in
20:15 27.0 °F 16.0 °F 1010.0 in East 9.3 mph 9.3 mph 51 % 0.0 in
20:21 26.8 °F 17.0 °F 1010.0 in ENE 7.4 mph 7.6 mph 55 % 0.0 in
20:25 23.4 °F 18.9 °F 1010.0 in NE 8.0 mph 8.0 mph 76 % 0.0 in
20:26 26.5 °F 17.3 °F 1010.0 in ENE 7.9 mph 12.6 mph 57 % 0.0 in
20:31 26.2 °F 17.6 °F 1010.0 in ENE 10.0 mph 10.0 mph 59 % 0.0 in
20:35 23.5 °F 19.0 °F 1010.0 in NE 4.8 mph 8.0 mph 76 % 0.0 in
20:36 26.0 °F 18.2 °F 1010.0 in SSE 13.0 mph 13.0 mph 62 % 0.0 in
20:41 25.9 °F 18.3 °F 1010.0 in ENE 16.7 mph 16.7 mph 63 % 0.0 in
20:45 23.5 °F 19.0 °F 1009.0 in NE 4.8 mph 6.4 mph 76 % 0.0 in
20:46 25.8 °F 18.4 °F 1010.0 in East 13.0 mph 13.0 mph 64 % 0.0 in
20:51 25.6 °F 18.6 °F 1010.0 in ENE 16.7 mph 16.7 mph 65 % 0.0 in
20:55 23.5 °F 19.0 °F 1010.0 in NE 3.2 mph 4.8 mph 76 % 0.0 in
20:57 25.5 °F 18.4 °F 1010.0 in ENE 11.1 mph 11.1 mph 65 % 0.0 in
21:02 25.4 °F 18.3 °F 1010.0 in East 9.3 mph 9.3 mph 65 % 0.0 in
21:05 23.6 °F 19.1 °F 1010.0 in NE 1.6 mph 4.8 mph 76 % 0.0 in
21:07 25.4 °F 18.6 °F 1010.0 in NNE 11.1 mph 11.1 mph 66 % 0.0 in
21:12 25.3 °F 18.2 °F 1010.0 in East 7.4 mph 7.4 mph 65 % 0.0 in
21:15 23.6 °F 19.1 °F 1010.0 in NE 3.2 mph 4.8 mph 76 % 0.0 in
21:17 25.3 °F 18.5 °F 1010.0 in ESE 14.8 mph 14.8 mph 66 % 0.0 in
21:22 25.1 °F 18.3 °F 1010.0 in ESE 12.6 mph 12.6 mph 66 % 0.0 in
21:25 23.6 °F 19.1 °F 1010.0 in NNE 4.8 mph 4.8 mph 76 % 0.0 in
21:27 25.0 °F 18.4 °F 1010.0 in ENE 13.0 mph 13.0 mph 67 % 0.0 in
21:32 25.0 °F 18.4 °F 1010.0 in East 9.3 mph 9.3 mph 67 % 0.0 in
21:35 23.7 °F 19.0 °F 1010.0 in NNE 4.8 mph 8.0 mph 75 % 0.0 in
21:37 24.9 °F 18.6 °F 1010.0 in ENE 9.3 mph 9.3 mph 68 % 0.0 in
21:42 24.8 °F 18.7 °F 1010.0 in SE 9.3 mph 9.3 mph 69 % 0.0 in
21:45 23.7 °F 18.8 °F 1010.0 in NE 8.0 mph 8.0 mph 74 % 0.0 in
21:47 24.8 °F 18.7 °F 1010.0 in ENE 11.1 mph 11.1 mph 69 % 0.0 in
21:52 24.7 °F 18.8 °F 1010.0 in ENE 12.6 mph 12.6 mph 70 % 0.0 in
21:55 23.7 °F 18.8 °F 1010.0 in NE 4.8 mph 6.4 mph 74 % 0.0 in
21:57 24.6 °F 18.8 °F 1010.0 in East 7.4 mph 7.4 mph 70 % 0.0 in
22:02 24.6 °F 18.8 °F 1010.0 in ENE 13.0 mph 13.0 mph 70 % 0.0 in
22:05 23.7 °F 18.6 °F 1010.0 in NNE 4.8 mph 6.4 mph 73 % 0.0 in
22:08 24.5 °F 18.7 °F 1010.0 in SE 7.4 mph 7.4 mph 70 % 0.0 in
22:13 24.4 °F 18.8 °F 1010.0 in NE 9.3 mph 9.3 mph 71 % 0.0 in
22:15 23.6 °F 18.5 °F 1010.0 in NNE 4.8 mph 9.7 mph 73 % 0.0 in
22:18 24.4 °F 18.8 °F 1010.0 in East 7.4 mph 7.4 mph 71 % 0.0 in
22:23 24.4 °F 18.8 °F 1010.0 in SSE 14.8 mph 14.8 mph 71 % 0.0 in
22:25 23.6 °F 18.5 °F 1009.0 in NNE 4.8 mph 8.0 mph 73 % 0.0 in
22:28 24.3 °F 18.7 °F 1010.0 in ESE 11.1 mph 11.1 mph 71 % 0.0 in
22:33 24.3 °F 18.7 °F 1010.0 in ESE 14.8 mph 14.8 mph 71 % 0.0 in
22:35 23.5 °F 18.4 °F 1009.0 in NNE 1.6 mph 6.4 mph 73 % 0.0 in
22:38 24.3 °F 18.7 °F 1010.0 in SE 7.4 mph 7.4 mph 71 % 0.0 in
22:43 24.2 °F 18.8 °F 1010.0 in East 11.1 mph 11.1 mph 72 % 0.0 in
22:45 23.3 °F 18.2 °F 1010.0 in NNE 1.6 mph 4.8 mph 73 % 0.0 in
22:48 24.2 °F 18.8 °F 1010.0 in ESE 9.3 mph 9.3 mph 72 % 0.0 in
22:53 24.2 °F 18.8 °F 1010.7 in East 9.3 mph 9.3 mph 72 % 0.0 in
22:55 23.2 °F 18.1 °F 1010.0 in NE 3.2 mph 4.8 mph 73 % 0.0 in
22:58 24.1 °F 18.9 °F 1010.7 in NE 11.4 mph 11.4 mph 73 % 0.0 in
23:03 24.1 °F 18.9 °F 1010.7 in NNE 9.3 mph 9.3 mph 73 % 0.0 in
23:05 23.1 °F 18.0 °F 1010.0 in NE 1.6 mph 4.8 mph 73 % 0.0 in
23:09 24.0 °F 18.8 °F 1010.7 in ENE 5.6 mph 5.6 mph 73 % 0.0 in
23:14 24.0 °F 18.7 °F 1010.7 in NNE 6.9 mph 6.9 mph 72 % 0.0 in
23:15 23.0 °F 17.9 °F 1010.0 in NE 4.8 mph 6.4 mph 73 % 0.0 in
23:19 23.9 °F 19.0 °F 1010.7 in NE 7.4 mph 7.4 mph 74 % 0.0 in
23:24 23.9 °F 19.0 °F 1010.0 in ENE 5.6 mph 5.6 mph 74 % 0.0 in
23:25 22.8 °F 17.7 °F 1009.0 in NE 4.8 mph 4.8 mph 73 % 0.0 in
23:29 23.8 °F 18.9 °F 1010.0 in ENE 11.1 mph 11.1 mph 74 % 0.0 in
23:34 23.7 °F 19.0 °F 1010.0 in ENE 9.3 mph 9.3 mph 75 % 0.0 in
23:35 22.8 °F 17.9 °F 1009.0 in NE 3.2 mph 6.4 mph 74 % 0.0 in
23:40 23.7 °F 19.0 °F 1010.0 in NE 9.3 mph 9.3 mph 75 % 0.0 in
23:45 23.7 °F 19.2 °F 1010.0 in NE 9.7 mph 9.7 mph 76 % 0.0 in
23:50 23.6 °F 19.1 °F 1010.0 in ENE 6.1 mph 6.4 mph 76 % 0.0 in
23:55 23.6 °F 19.1 °F 1010.0 in NE 9.3 mph 9.3 mph 76 % 0.0 in
Meteo Sesrovires
Elogis d' Weather Underground - 1.5 mb

Guio original per  Jim McMurry - jmcmurry@mwt.net Adaptat per a la plantilla per  Wim van der Kuil - Leuven-Template.eu

Trobareu la nostra informacio del temps tambe a:

Weather Underground

AWEKAS